createdAt,value
2018-07-21T00:02:08.977Z,97913.66
2018-07-21T00:04:37.058Z,97909.63
2018-07-21T00:07:05.148Z,97898.02
2018-07-21T00:09:33.154Z,97901.31
2018-07-21T00:12:01.120Z,97919.10
2018-07-21T00:14:29.227Z,97921.49
2018-07-21T00:16:57.245Z,97927.84
2018-07-21T00:19:25.532Z,97925.25
2018-07-21T00:21:53.515Z,97916.75
2018-07-21T00:24:21.455Z,97933.17
2018-07-21T00:26:49.781Z,97919.66
2018-07-21T00:29:19.333Z,97918.38
2018-07-21T00:31:47.386Z,97925.55
2018-07-21T00:34:15.353Z,97918.25
2018-07-21T00:36:43.436Z,97910.72
2018-07-21T00:39:14.201Z,97927.75
2018-07-21T00:41:42.324Z,97915.30
2018-07-21T00:44:10.413Z,97914.33
2018-07-21T00:46:38.429Z,97918.55
2018-07-21T00:49:06.843Z,97932.47
2018-07-21T00:51:35.082Z,97922.80
2018-07-21T00:54:03.013Z,97925.38
2018-07-21T00:56:31.642Z,97920.07
2018-07-21T00:58:59.536Z,97919.93
2018-07-21T01:01:27.461Z,97943.02
2018-07-21T01:03:55.585Z,97930.66
2018-07-21T01:06:23.619Z,97917.86
2018-07-21T01:08:51.639Z,97931.63
2018-07-21T01:11:19.636Z,97918.41
2018-07-21T01:13:47.751Z,97926.73
2018-07-21T01:16:15.824Z,97922.70
2018-07-21T01:18:43.973Z,97914.20
2018-07-21T01:21:12.343Z,97935.52
2018-07-21T01:23:40.438Z,97917.86
2018-07-21T01:26:08.425Z,97903.76
2018-07-21T01:28:36.465Z,97935.52
2018-07-21T01:31:04.429Z,97921.74
2018-07-21T01:33:32.453Z,97916.66
2018-07-21T01:36:00.345Z,97932.19
2018-07-21T01:38:28.326Z,97919.90
2018-07-21T01:40:56.356Z,97916.09
2018-07-21T01:43:24.409Z,97927.28
2018-07-21T01:45:52.490Z,97937.28
2018-07-21T01:48:20.499Z,97916.65
2018-07-21T01:50:48.532Z,97923.86
2018-07-21T01:53:16.751Z,97919.29
2018-07-21T01:55:44.729Z,97924.27
2018-07-21T01:58:12.707Z,97911.80
2018-07-21T02:00:40.840Z,97933.06
2018-07-21T02:03:08.788Z,97922.44
2018-07-21T02:05:36.802Z,97929.50
2018-07-21T02:08:04.987Z,97916.70
2018-07-21T02:10:32.941Z,97933.66
2018-07-21T02:13:01.032Z,97931.90
2018-07-21T02:15:29.014Z,97935.14
2018-07-21T02:17:57.066Z,97933.65
2018-07-21T02:20:25.112Z,97935.48
2018-07-21T02:22:53.137Z,97928.45
2018-07-21T02:25:21.150Z,97932.05
2018-07-21T02:27:49.176Z,97941.43
2018-07-21T02:30:17.236Z,97932.70
2018-07-21T02:32:45.399Z,97930.79
2018-07-21T02:35:13.349Z,97929.03
2018-07-21T02:37:41.353Z,97930.03
2018-07-21T02:40:09.414Z,97934.97
2018-07-21T02:42:37.353Z,97930.43
2018-07-21T02:45:05.330Z,97933.84
2018-07-21T02:47:33.530Z,97932.72
2018-07-21T02:50:01.553Z,97937.25
2018-07-21T02:52:29.468Z,97936.14
2018-07-21T02:54:57.427Z,97937.31
2018-07-21T02:57:25.453Z,97947.96
2018-07-21T02:59:53.472Z,97951.48
2018-07-21T03:02:21.461Z,97947.75
2018-07-21T03:04:49.494Z,97951.35
2018-07-21T03:07:17.580Z,97941.83
2018-07-21T03:09:45.758Z,97954.25
2018-07-21T03:12:13.750Z,97975.11
2018-07-21T03:14:41.831Z,97962.27
2018-07-21T03:17:09.881Z,97955.19
2018-07-21T03:19:37.929Z,97952.73
2018-07-21T03:22:05.944Z,97969.07
2018-07-21T03:24:33.896Z,97946.88
2018-07-21T03:27:01.985Z,97949.80
2018-07-21T03:29:30.036Z,97969.22
2018-07-21T03:31:58.097Z,97953.54
2018-07-21T03:34:26.059Z,97961.09
2018-07-21T03:36:54.160Z,97957.50
2018-07-21T03:39:22.133Z,97946.59
2018-07-21T03:41:50.736Z,97943.59
2018-07-21T03:44:18.756Z,97974.37
2018-07-21T03:46:46.870Z,97942.58
2018-07-21T03:49:15.070Z,97940.45
2018-07-21T03:51:43.058Z,97944.30
2018-07-21T03:54:11.037Z,97941.16
2018-07-21T03:56:39.112Z,97939.49
2018-07-21T03:59:07.030Z,97955.68
2018-07-21T04:01:35.015Z,97950.03
2018-07-21T04:04:03.015Z,97945.88
2018-07-21T04:06:31.324Z,97954.28
2018-07-21T04:08:59.420Z,97942.02
2018-07-21T04:11:27.568Z,97944.23
2018-07-21T04:13:55.639Z,97943.87
2018-07-21T04:16:23.761Z,97943.41
2018-07-21T04:18:51.706Z,97955.25
2018-07-21T04:21:19.817Z,97943.08
2018-07-21T04:23:48.067Z,97951.16
2018-07-21T04:26:16.040Z,97953.95
2018-07-21T04:28:44.131Z,97966.94
2018-07-21T04:31:12.184Z,97981.29
2018-07-21T04:33:40.152Z,97958.39
2018-07-21T04:36:08.119Z,97972.58
2018-07-21T04:38:36.184Z,97973.87
2018-07-21T04:41:04.297Z,97962.50
2018-07-21T04:43:32.274Z,97974.07
2018-07-21T04:46:00.321Z,97968.70
2018-07-21T04:48:29.785Z,97998.27
2018-07-21T04:50:58.032Z,97971.98
2018-07-21T04:53:26.063Z,98001.22
2018-07-21T04:55:54.109Z,97983.77
2018-07-21T04:58:22.145Z,97978.45
2018-07-21T05:00:50.206Z,97999.36
2018-07-21T05:03:18.182Z,97981.03
2018-07-21T05:05:46.241Z,97980.40
2018-07-21T05:08:14.186Z,97972.75
2018-07-21T05:10:42.182Z,97981.81
2018-07-21T05:13:10.264Z,97971.36
2018-07-21T05:15:38.184Z,97985.49
2018-07-21T05:18:05.915Z,97985.88
2018-07-21T05:20:33.975Z,97979.69
2018-07-21T05:23:02.222Z,97983.56
2018-07-21T05:25:30.250Z,97997.21
2018-07-21T05:27:58.275Z,97988.42
2018-07-21T05:30:26.280Z,97996.22
2018-07-21T05:32:54.277Z,97994.42
2018-07-21T05:35:22.456Z,98002.33
2018-07-21T05:37:51.661Z,98003.03
2018-07-21T05:40:19.847Z,98002.83
2018-07-21T05:42:48.046Z,97995.23
2018-07-21T05:45:16.035Z,97992.59
2018-07-21T05:47:44.192Z,98012.59
2018-07-21T05:50:12.324Z,98011.89
2018-07-21T05:52:42.802Z,97998.99
2018-07-21T05:55:10.818Z,98014.34
2018-07-21T05:57:38.849Z,98004.98
2018-07-21T06:00:10.129Z,98009.02
2018-07-21T06:02:38.245Z,98006.71
2018-07-21T06:05:06.426Z,98018.38
2018-07-21T06:07:34.560Z,98013.24
2018-07-21T06:10:02.595Z,98011.12
2018-07-21T06:12:30.536Z,98018.90
2018-07-21T06:14:58.531Z,98020.61
2018-07-21T06:17:26.546Z,98025.10
2018-07-21T06:19:54.695Z,98027.84
2018-07-21T06:22:22.735Z,98019.39
2018-07-21T06:24:50.691Z,98032.64
2018-07-21T06:27:18.643Z,98020.23
2018-07-21T06:29:46.689Z,98016.20
2018-07-21T06:32:14.814Z,98026.89
2018-07-21T06:34:42.904Z,98035.50
2018-07-21T06:37:10.885Z,98017.27
2018-07-21T06:39:38.919Z,98022.06
2018-07-21T06:42:06.977Z,98029.02
2018-07-21T06:44:34.953Z,98041.13
2018-07-21T06:47:06.759Z,98014.02
2018-07-21T06:49:34.780Z,98020.50
2018-07-21T06:52:02.907Z,98005.94
2018-07-21T06:54:30.876Z,98021.60
2018-07-21T06:57:03.494Z,98025.13
2018-07-21T06:59:31.550Z,98025.16
2018-07-21T07:01:59.594Z,98020.78
2018-07-21T07:04:27.658Z,98021.20
2018-07-21T07:06:56.684Z,98027.10
2018-07-21T07:09:24.934Z,98031.95
2018-07-21T07:11:53.007Z,98024.65
2018-07-21T07:14:21.921Z,98041.28
2018-07-21T07:16:49.889Z,98016.48
2018-07-21T07:19:17.919Z,98021.09
2018-07-21T07:21:45.996Z,98030.32
2018-07-21T07:24:13.956Z,98026.01
2018-07-21T07:26:42.061Z,98026.05
2018-07-21T07:29:10.448Z,98027.58
2018-07-21T07:31:38.522Z,98022.27
2018-07-21T07:34:06.662Z,98029.72
2018-07-21T07:36:34.901Z,98028.47
2018-07-21T07:39:03.244Z,98041.28
2018-07-21T07:41:31.195Z,98046.86
2018-07-21T07:43:59.150Z,98049.57
2018-07-21T07:46:27.142Z,98034.93
2018-07-21T07:48:55.104Z,98035.72
2018-07-21T07:51:23.192Z,98042.75
2018-07-21T07:53:51.673Z,98026.40
2018-07-21T07:56:22.872Z,98039.84
2018-07-21T07:58:50.798Z,98035.06
2018-07-21T08:01:19.169Z,98041.49
2018-07-21T08:03:47.164Z,98038.88
2018-07-21T08:06:15.277Z,98041.31
2018-07-21T08:08:44.304Z,98036.84
2018-07-21T08:11:12.305Z,98039.07
2018-07-21T08:13:40.345Z,98030.78
2018-07-21T08:16:08.279Z,98041.17
2018-07-21T08:18:36.517Z,98034.81
2018-07-21T08:21:04.520Z,98034.83
2018-07-21T08:23:32.602Z,98042.78
2018-07-21T08:26:00.646Z,98039.14
2018-07-21T08:28:28.762Z,98045.59
2018-07-21T08:30:57.011Z,98033.86
2018-07-21T08:33:24.986Z,98042.59
2018-07-21T08:35:53.025Z,98026.61
2018-07-21T08:38:21.305Z,98028.30
2018-07-21T08:40:49.369Z,98024.05
2018-07-21T08:43:17.406Z,98026.44
2018-07-21T08:45:45.417Z,98025.00
2018-07-21T08:48:13.561Z,98025.81
2018-07-21T08:50:41.653Z,98029.89
2018-07-21T08:53:09.719Z,98030.66
2018-07-21T08:55:37.949Z,98020.15
2018-07-21T08:58:06.032Z,98031.12
2018-07-21T09:00:34.074Z,98024.81
2018-07-21T09:03:02.131Z,98017.50
2018-07-21T09:05:30.296Z,98016.03
2018-07-21T09:07:58.401Z,98010.41
2018-07-21T09:10:26.459Z,98009.95
2018-07-21T09:12:54.634Z,98016.53
2018-07-21T09:15:22.763Z,98017.84
2018-07-21T09:17:51.010Z,98004.41
2018-07-21T09:20:19.102Z,98021.10
2018-07-21T09:22:47.161Z,98009.58
2018-07-21T09:25:15.315Z,98011.75
2018-07-21T09:27:43.360Z,98002.76
2018-07-21T09:30:11.354Z,97999.10
2018-07-21T09:32:39.344Z,97997.22
2018-07-21T09:35:07.403Z,98005.70
2018-07-21T09:37:35.420Z,98012.64
2018-07-21T09:40:03.740Z,98010.49
2018-07-21T09:42:31.774Z,98003.10
2018-07-21T09:44:59.823Z,97998.85
2018-07-21T09:47:27.783Z,98003.37
2018-07-21T09:49:56.486Z,98000.59
2018-07-21T09:52:24.518Z,98009.31
2018-07-21T09:54:52.623Z,98010.34
2018-07-21T09:57:20.624Z,98011.29
2018-07-21T09:59:48.698Z,98018.75
2018-07-21T10:02:17.480Z,98021.47
2018-07-21T10:04:45.778Z,98002.16
2018-07-21T10:07:14.838Z,98015.50
2018-07-21T10:09:44.245Z,98007.20
2018-07-21T10:12:13.474Z,98001.89
2018-07-21T10:14:41.781Z,98000.88
2018-07-21T10:17:10.433Z,97996.16
2018-07-21T10:19:39.265Z,98003.02
2018-07-21T10:22:10.085Z,97990.54
2018-07-21T10:24:43.777Z,97992.86
2018-07-21T10:27:14.383Z,97986.67
2018-07-21T10:29:42.523Z,97986.14
2018-07-21T10:32:10.959Z,97981.20
2018-07-21T10:34:39.994Z,97991.56
2018-07-21T10:37:08.482Z,97979.27
2018-07-21T10:39:37.186Z,97972.60
2018-07-21T10:42:05.520Z,97977.61
2018-07-21T10:44:33.660Z,97970.45
2018-07-21T10:47:01.709Z,97963.36
2018-07-21T10:49:30.238Z,97975.72
2018-07-21T10:51:59.025Z,97973.80
2018-07-21T10:54:27.534Z,97980.05
2018-07-21T10:56:56.494Z,97971.53
2018-07-21T10:59:24.533Z,97978.56
2018-07-21T11:01:53.014Z,97971.59
2018-07-21T11:04:21.103Z,97975.84
2018-07-21T11:06:49.993Z,97972.94
2018-07-21T11:09:19.195Z,97977.98
2018-07-21T11:11:47.212Z,97965.33
2018-07-21T11:14:15.312Z,97977.83
2018-07-21T11:16:45.705Z,97972.38
2018-07-21T11:19:14.791Z,97973.77
2018-07-21T11:21:42.797Z,97970.50
2018-07-21T11:24:10.889Z,97965.80
2018-07-21T11:26:40.225Z,97973.97
2018-07-21T11:29:08.412Z,97977.76
2018-07-21T11:31:39.330Z,97964.70
2018-07-21T11:34:07.430Z,97966.45
2018-07-21T11:36:35.546Z,97965.09
2018-07-21T11:39:04.333Z,97957.50
2018-07-21T11:41:32.956Z,97952.75
2018-07-21T11:44:01.465Z,97967.28
2018-07-21T11:46:30.276Z,97964.09
2018-07-21T11:48:59.852Z,97961.63
2018-07-21T11:51:27.926Z,97956.60
2018-07-21T11:53:56.088Z,97965.60
2018-07-21T11:56:24.287Z,97969.06
2018-07-21T11:58:52.345Z,97966.28
2018-07-21T12:01:20.824Z,97948.64
2018-07-21T12:03:49.331Z,97944.06
2018-07-21T12:06:17.871Z,97947.75
2018-07-21T12:08:45.896Z,97949.03
2018-07-21T12:11:14.663Z,97945.81
2018-07-21T12:13:43.237Z,97949.98
2018-07-21T12:16:11.657Z,97952.70
2018-07-21T12:18:39.700Z,97951.80
2018-07-21T12:21:07.718Z,97948.84
2018-07-21T12:23:35.884Z,97952.91
2018-07-21T12:26:04.016Z,97944.28
2018-07-21T12:28:32.228Z,97945.86
2018-07-21T12:31:00.317Z,97938.16
2018-07-21T12:33:28.324Z,97939.62
2018-07-21T12:35:56.370Z,97931.97
2018-07-21T12:38:24.688Z,97928.55
2018-07-21T12:40:52.838Z,97934.14
2018-07-21T12:43:20.807Z,97933.22
2018-07-21T12:45:49.512Z,97933.22
2018-07-21T12:48:17.718Z,97938.08
2018-07-21T12:50:46.098Z,97931.91
2018-07-21T12:53:14.112Z,97929.84
2018-07-21T12:55:42.306Z,97929.54
2018-07-21T12:58:10.703Z,97928.78
2018-07-21T13:00:38.718Z,97929.74
2018-07-21T13:03:06.992Z,97950.19
2018-07-21T13:05:35.098Z,97939.66
2018-07-21T13:08:03.163Z,97943.19
2018-07-21T13:10:31.511Z,97945.42
2018-07-21T13:12:59.521Z,97936.00
2018-07-21T13:15:27.642Z,97933.54
2018-07-21T13:17:56.380Z,97926.41
2018-07-21T13:20:24.370Z,97919.69
2018-07-21T13:22:52.518Z,97947.57
2018-07-21T13:25:21.906Z,97937.70
2018-07-21T13:27:49.959Z,97940.28
2018-07-21T13:30:17.991Z,97929.31
2018-07-21T13:32:46.818Z,97945.95
2018-07-21T13:35:15.030Z,97937.16
2018-07-21T13:37:43.325Z,97929.55
2018-07-21T13:40:12.663Z,97935.54
2018-07-21T13:42:42.421Z,97936.98
2018-07-21T13:45:10.563Z,97944.95
2018-07-21T13:47:38.962Z,97936.11
2018-07-21T13:50:07.013Z,97951.23
2018-07-21T13:52:35.800Z,97933.02
2018-07-21T13:55:04.123Z,97948.75
2018-07-21T13:57:32.474Z,97936.06
2018-07-21T14:00:00.777Z,97937.21
2018-07-21T14:02:28.787Z,97943.25
2018-07-21T14:04:56.871Z,97931.95
2018-07-21T14:07:24.891Z,97936.05
2018-07-21T14:09:53.564Z,97938.44
2018-07-21T14:12:22.291Z,97954.25
2018-07-21T14:14:50.346Z,97946.63
2018-07-21T14:17:19.556Z,97941.14
2018-07-21T14:19:47.543Z,97936.98
2018-07-21T14:22:15.995Z,97944.94
2018-07-21T14:24:44.136Z,97942.32
2018-07-21T14:27:12.211Z,97938.57
2018-07-21T14:29:40.406Z,97939.75
2018-07-21T14:32:08.361Z,97942.36
2018-07-21T14:34:36.537Z,97933.63
2018-07-21T14:37:05.019Z,97945.91
2018-07-21T14:39:33.169Z,97931.61
2018-07-21T14:42:01.247Z,97941.63
2018-07-21T14:44:29.372Z,97945.95
2018-07-21T14:46:57.368Z,97944.55
2018-07-21T14:49:25.384Z,97937.52
2018-07-21T14:51:53.570Z,97941.89
2018-07-21T14:54:21.812Z,97940.18
2018-07-21T14:56:49.899Z,97934.73
2018-07-21T14:59:17.928Z,97935.37
2018-07-21T15:01:46.401Z,97935.03
2018-07-21T15:04:14.399Z,97942.90
2018-07-21T15:06:42.569Z,97934.41
2018-07-21T15:09:11.784Z,97941.93
2018-07-21T15:11:40.017Z,97930.48
2018-07-21T15:14:08.292Z,97941.10
2018-07-21T15:16:38.391Z,97939.20
2018-07-21T15:19:07.415Z,97943.05
2018-07-21T15:21:35.543Z,97941.92
2018-07-21T15:24:04.207Z,97929.75
2018-07-21T15:26:33.943Z,97934.28
2018-07-21T15:29:02.254Z,97929.42
2018-07-21T15:31:31.073Z,97938.25
2018-07-21T15:33:59.333Z,97932.03
2018-07-21T15:36:27.353Z,97943.58
2018-07-21T15:38:56.063Z,97944.90
2018-07-21T15:41:24.163Z,97939.16
2018-07-21T15:43:52.866Z,97945.91
2018-07-21T15:46:21.139Z,97949.11
2018-07-21T15:48:49.973Z,97941.30
2018-07-21T15:51:18.093Z,97943.78
2018-07-21T15:53:46.416Z,97944.60
2018-07-21T15:56:15.549Z,97943.29
2018-07-21T15:58:43.666Z,97942.45
2018-07-21T16:01:13.247Z,97941.26
2018-07-21T16:03:41.391Z,97940.88
2018-07-21T16:06:09.603Z,97938.80
2018-07-21T16:08:38.519Z,97936.73
2018-07-21T16:11:07.448Z,97940.93
2018-07-21T16:13:36.421Z,97937.16
2018-07-21T16:16:04.951Z,97939.25
2018-07-21T16:18:34.224Z,97939.67
2018-07-21T16:21:03.563Z,97941.81
2018-07-21T16:23:31.735Z,97935.44
2018-07-21T16:25:59.994Z,97939.19
2018-07-21T16:28:28.153Z,97939.84
2018-07-21T16:30:56.206Z,97930.09
2018-07-21T16:33:24.439Z,97941.39
2018-07-21T16:35:52.921Z,97925.72
2018-07-21T16:38:21.058Z,97922.66
2018-07-21T16:40:49.255Z,97918.19
2018-07-21T16:43:18.121Z,97922.52
2018-07-21T16:45:46.216Z,97933.43
2018-07-21T16:48:17.814Z,97934.08
2018-07-21T16:50:46.422Z,97939.19
2018-07-21T16:53:14.750Z,97934.16
2018-07-21T16:55:42.851Z,97940.19
2018-07-21T16:58:11.389Z,97947.14
2018-07-21T17:00:39.941Z,97947.48
2018-07-21T17:03:08.193Z,97948.73
2018-07-21T17:05:36.287Z,97955.34
2018-07-21T17:08:04.605Z,97955.98
2018-07-21T17:10:33.304Z,97957.92
2018-07-21T17:13:01.279Z,97963.26
2018-07-21T17:15:29.380Z,97966.80
2018-07-21T17:17:57.355Z,97965.39
2018-07-21T17:20:25.532Z,97972.89
2018-07-21T17:22:53.506Z,97970.60
2018-07-21T17:25:21.567Z,97969.44
2018-07-21T17:27:49.664Z,97964.47
2018-07-21T17:30:17.632Z,97965.25
2018-07-21T17:32:45.709Z,97965.64
2018-07-21T17:35:14.931Z,97963.48
2018-07-21T17:37:42.974Z,97971.78
2018-07-21T17:40:10.995Z,97965.20
2018-07-21T17:42:39.109Z,97967.48
2018-07-21T17:45:07.477Z,97969.98
2018-07-21T17:47:35.679Z,97973.02
2018-07-21T17:50:03.798Z,97974.63
2018-07-21T17:52:32.383Z,97976.25
2018-07-21T17:55:00.466Z,97990.33
2018-07-21T17:57:28.426Z,97988.94
2018-07-21T17:59:56.443Z,97988.03
2018-07-21T18:02:24.516Z,97996.23
2018-07-21T18:04:52.521Z,97986.74
2018-07-21T18:07:20.652Z,97992.77
2018-07-21T18:09:48.712Z,97992.11
2018-07-21T18:12:16.778Z,97996.78
2018-07-21T18:14:44.768Z,97991.63
2018-07-21T18:17:12.765Z,97997.99
2018-07-21T18:19:40.703Z,98002.59
2018-07-21T18:22:08.774Z,98008.49
2018-07-21T18:24:36.820Z,98002.04
2018-07-21T18:27:04.867Z,98011.45
2018-07-21T18:29:32.958Z,98014.97
2018-07-21T18:32:00.986Z,98012.10
2018-07-21T18:34:29.009Z,98024.99
2018-07-21T18:36:58.230Z,98033.66
2018-07-21T18:39:26.261Z,98035.70
2018-07-21T18:41:54.278Z,98032.86
2018-07-21T18:44:22.263Z,98036.65
2018-07-21T18:46:50.288Z,98042.48
2018-07-21T18:49:18.742Z,98042.81
2018-07-21T18:51:46.875Z,98044.97
2018-07-21T18:54:14.929Z,98041.68
2018-07-21T18:56:44.058Z,98048.42
2018-07-21T18:59:12.167Z,98044.38
2018-07-21T19:01:40.252Z,98041.76
2018-07-21T19:04:08.221Z,98046.28
2018-07-21T19:06:36.299Z,98039.78
2018-07-21T19:09:07.369Z,98041.64
2018-07-21T19:11:35.328Z,98044.08
2018-07-21T19:14:03.577Z,98040.78
2018-07-21T19:16:40.121Z,98043.61
2018-07-21T19:19:08.285Z,98038.38
2018-07-21T19:21:36.313Z,98048.64
2018-07-21T19:24:04.550Z,98037.29
2018-07-21T19:26:38.122Z,98034.31
2018-07-21T19:29:06.194Z,98034.25
2018-07-21T19:31:34.089Z,98036.43
2018-07-21T19:34:02.202Z,98028.59
2018-07-21T19:36:30.175Z,98024.90
2018-07-21T19:38:58.276Z,98019.95
2018-07-21T19:41:31.604Z,98026.18
2018-07-21T19:43:59.661Z,98027.89
2018-07-21T19:46:27.679Z,98015.21
2018-07-21T19:48:55.681Z,98020.69
2018-07-21T19:51:23.692Z,98024.39
2018-07-21T19:53:51.786Z,98017.14
2018-07-21T19:56:19.827Z,98013.78
2018-07-21T19:58:47.790Z,98014.82
2018-07-21T20:01:15.832Z,98015.43
2018-07-21T20:03:43.899Z,98005.03
2018-07-21T20:06:11.923Z,98009.06
2018-07-21T20:08:40.092Z,98004.32
2018-07-21T20:11:08.301Z,98002.41
2018-07-21T20:13:36.251Z,98006.23
2018-07-21T20:16:04.296Z,97995.21
2018-07-21T20:18:32.232Z,97993.19
2018-07-21T20:21:00.470Z,98001.52
2018-07-21T20:23:28.364Z,98006.55
2018-07-21T20:25:56.411Z,98005.66
2018-07-21T20:28:24.376Z,97997.81
2018-07-21T20:30:52.650Z,97999.98
2018-07-21T20:33:20.740Z,98011.87
2018-07-21T20:35:48.722Z,98001.54
2018-07-21T20:38:16.826Z,97997.75
2018-07-21T20:40:44.929Z,98004.63
2018-07-21T20:43:13.031Z,97997.45
2018-07-21T20:45:41.099Z,98004.44
2018-07-21T20:48:09.426Z,98006.45
2018-07-21T20:50:37.392Z,97998.13
2018-07-21T20:53:05.562Z,98001.03
2018-07-21T20:55:33.588Z,98002.17
2018-07-21T20:58:02.243Z,98004.47
2018-07-21T21:00:31.297Z,98004.84
2018-07-21T21:02:59.520Z,98006.30
2018-07-21T21:05:27.601Z,98014.70
2018-07-21T21:07:55.758Z,98013.31
2018-07-21T21:10:23.935Z,98012.69
2018-07-21T21:12:52.635Z,98016.47
2018-07-21T21:15:21.175Z,98021.41
2018-07-21T21:17:49.509Z,98020.34
2018-07-21T21:20:18.231Z,98025.02
2018-07-21T21:22:48.268Z,98025.91
2018-07-21T21:25:17.392Z,98021.08
2018-07-21T21:27:46.552Z,98025.19
2018-07-21T21:30:15.716Z,98022.60
2018-07-21T21:32:44.527Z,98038.91
2018-07-21T21:35:13.888Z,98030.20
2018-07-21T21:37:42.674Z,98031.22
2018-07-21T21:40:11.498Z,98038.39
2018-07-21T21:42:39.635Z,98037.10
2018-07-21T21:45:07.594Z,98031.77
2018-07-21T21:47:35.606Z,98035.65
2018-07-21T21:50:03.837Z,98034.56
2018-07-21T21:52:32.007Z,98035.08
2018-07-21T21:55:00.075Z,98037.96
2018-07-21T21:57:28.187Z,98047.29
2018-07-21T21:59:56.250Z,98049.83
2018-07-21T22:02:24.294Z,98048.83
2018-07-21T22:04:52.397Z,98044.61
2018-07-21T22:07:20.467Z,98054.93
2018-07-21T22:09:48.475Z,98058.90
2018-07-21T22:12:16.373Z,98052.98
2018-07-21T22:14:44.732Z,98053.28
2018-07-21T22:17:13.738Z,98045.02
2018-07-21T22:19:41.772Z,98044.49
2018-07-21T22:22:09.814Z,98053.11
2018-07-21T22:24:37.962Z,98052.00
2018-07-21T22:27:06.179Z,98052.00
2018-07-21T22:29:34.156Z,98042.80
2018-07-21T22:32:02.208Z,98048.25
2018-07-21T22:34:30.298Z,98047.42
2018-07-21T22:36:58.390Z,98047.58
2018-07-21T22:39:26.634Z,98042.84
2018-07-21T22:41:54.686Z,98038.77
2018-07-21T22:44:22.674Z,98038.11
2018-07-21T22:46:50.692Z,98035.00
2018-07-21T22:49:18.708Z,98034.81
2018-07-21T22:51:46.686Z,98039.66
2018-07-21T22:54:14.642Z,98039.48
2018-07-21T22:56:42.672Z,98044.48
2018-07-21T22:59:10.725Z,98042.84
2018-07-21T23:01:39.256Z,98038.97
2018-07-21T23:04:07.399Z,98035.64
2018-07-21T23:06:35.361Z,98035.63
2018-07-21T23:09:03.901Z,98034.48
2018-07-21T23:11:32.031Z,98042.70
2018-07-21T23:14:00.043Z,98035.55
2018-07-21T23:16:28.015Z,98035.37
2018-07-21T23:18:56.036Z,98033.39
2018-07-21T23:21:24.032Z,98034.89
2018-07-21T23:23:52.170Z,98036.41
2018-07-21T23:26:20.208Z,98036.59
2018-07-21T23:28:48.304Z,98027.83
2018-07-21T23:31:16.290Z,98031.39
2018-07-21T23:33:44.228Z,98027.16
2018-07-21T23:36:12.199Z,98036.04
2018-07-21T23:38:40.147Z,98037.50
2018-07-21T23:41:08.163Z,98033.19
2018-07-21T23:43:36.196Z,98028.06
2018-07-21T23:46:04.317Z,98031.12
2018-07-21T23:48:32.286Z,98028.20
2018-07-21T23:51:00.299Z,98027.09
2018-07-21T23:53:28.379Z,98020.25
2018-07-21T23:55:56.600Z,98019.25
2018-07-21T23:58:24.628Z,98030.42
